sensor_id;sensor_type;location;lat;lon;timestamp;P1;durP1;ratioP1;P2;durP2;ratioP2
18740;SDS011;9499;52.472;13.448;2023-03-01T00:01:07;4.80;;;4.50;;
18740;SDS011;9499;52.472;13.448;2023-03-01T00:03:36;4.57;;;4.20;;
18740;SDS011;9499;52.472;13.448;2023-03-01T00:06:03;4.67;;;4.47;;
18740;SDS011;9499;52.472;13.448;2023-03-01T00:08:31;4.30;;;4.00;;
18740;SDS011;9499;52.472;13.448;2023-03-01T00:11:02;5.27;;;4.70;;
18740;SDS011;9499;52.472;13.448;2023-03-01T00:13:30;4.20;;;3.80;;
18740;SDS011;9499;52.472;13.448;2023-03-01T00:15:57;6.20;;;5.70;;
18740;SDS011;9499;52.472;13.448;2023-03-01T00:18:24;3.80;;;3.60;;
18740;SDS011;9499;52.472;13.448;2023-03-01T00:20:52;5.03;;;4.73;;
18740;SDS011;9499;52.472;13.448;2023-03-01T00:23:21;4.43;;;4.23;;
18740;SDS011;9499;52.472;13.448;2023-03-01T00:25:48;5.90;;;5.50;;
18740;SDS011;9499;52.472;13.448;2023-03-01T00:28:15;5.83;;;5.43;;
18740;SDS011;9499;52.472;13.448;2023-03-01T00:30:42;5.53;;;5.13;;
18740;SDS011;9499;52.472;13.448;2023-03-01T00:33:10;5.17;;;4.70;;
18740;SDS011;9499;52.472;13.448;2023-03-01T00:35:37;4.00;;;3.80;;
18740;SDS011;9499;52.472;13.448;2023-03-01T00:38:05;7.30;;;4.83;;
18740;SDS011;9499;52.472;13.448;2023-03-01T00:40:33;5.50;;;5.07;;
18740;SDS011;9499;52.472;13.448;2023-03-01T00:43:01;4.20;;;4.00;;
18740;SDS011;9499;52.472;13.448;2023-03-01T00:45:32;4.00;;;3.80;;
18740;SDS011;9499;52.472;13.448;2023-03-01T00:47:59;6.77;;;5.77;;
18740;SDS011;9499;52.472;13.448;2023-03-01T00:50:26;4.33;;;4.03;;
18740;SDS011;9499;52.472;13.448;2023-03-01T00:52:52;4.57;;;4.33;;
18740;SDS011;9499;52.472;13.448;2023-03-01T00:55:22;3.83;;;3.63;;
18740;SDS011;9499;52.472;13.448;2023-03-01T00:57:50;4.60;;;4.30;;
18740;SDS011;9499;52.472;13.448;2023-03-01T01:00:17;3.77;;;3.47;;
18740;SDS011;9499;52.472;13.448;2023-03-01T01:02:44;3.70;;;3.50;;
18740;SDS011;9499;52.472;13.448;2023-03-01T01:05:11;4.73;;;4.40;;
18740;SDS011;9499;52.472;13.448;2023-03-01T01:07:38;6.13;;;5.63;;
18740;SDS011;9499;52.472;13.448;2023-03-01T01:10:05;6.60;;;4.93;;
18740;SDS011;9499;52.472;13.448;2023-03-01T01:12:43;4.63;;;4.20;;
18740;SDS011;9499;52.472;13.448;2023-03-01T01:15:12;11.23;;;4.80;;
18740;SDS011;9499;52.472;13.448;2023-03-01T01:17:41;4.37;;;4.17;;
18740;SDS011;9499;52.472;13.448;2023-03-01T01:20:11;5.17;;;4.77;;
18740;SDS011;9499;52.472;13.448;2023-03-01T01:22:38;4.17;;;3.87;;
18740;SDS011;9499;52.472;13.448;2023-03-01T01:25:05;5.23;;;4.83;;
18740;SDS011;9499;52.472;13.448;2023-03-01T01:27:31;6.53;;;6.13;;
18740;SDS011;9499;52.472;13.448;2023-03-01T01:29:59;8.60;;;6.30;;
18740;SDS011;9499;52.472;13.448;2023-03-01T01:32:26;3.67;;;3.47;;
18740;SDS011;9499;52.472;13.448;2023-03-01T01:34:52;5.30;;;4.90;;
18740;SDS011;9499;52.472;13.448;2023-03-01T01:37:19;4.30;;;4.10;;
18740;SDS011;9499;52.472;13.448;2023-03-01T01:39:46;12.53;;;5.67;;
18740;SDS011;9499;52.472;13.448;2023-03-01T01:42:13;4.93;;;4.63;;
18740;SDS011;9499;52.472;13.448;2023-03-01T01:44:44;3.70;;;3.50;;
18740;SDS011;9499;52.472;13.448;2023-03-01T01:47:14;4.03;;;3.83;;
18740;SDS011;9499;52.472;13.448;2023-03-01T01:49:44;4.20;;;3.83;;
18740;SDS011;9499;52.472;13.448;2023-03-01T01:52:16;4.43;;;4.13;;
18740;SDS011;9499;52.472;13.448;2023-03-01T01:54:46;5.23;;;4.90;;
18740;SDS011;9499;52.472;13.448;2023-03-01T01:57:18;4.63;;;4.33;;
18740;SDS011;9499;52.472;13.448;2023-03-01T01:59:50;4.30;;;4.00;;
18740;SDS011;9499;52.472;13.448;2023-03-01T02:02:20;4.43;;;4.23;;
18740;SDS011;9499;52.472;13.448;2023-03-01T02:04:47;3.73;;;3.53;;
18740;SDS011;9499;52.472;13.448;2023-03-01T02:07:16;4.37;;;4.10;;
18740;SDS011;9499;52.472;13.448;2023-03-01T02:09:45;11.87;;;5.60;;
18740;SDS011;9499;52.472;13.448;2023-03-01T02:12:13;4.60;;;4.40;;
18740;SDS011;9499;52.472;13.448;2023-03-01T02:14:42;4.80;;;4.60;;
18740;SDS011;9499;52.472;13.448;2023-03-01T02:17:08;8.90;;;5.73;;
18740;SDS011;9499;52.472;13.448;2023-03-01T02:19:40;3.83;;;3.63;;
18740;SDS011;9499;52.472;13.448;2023-03-01T02:22:17;6.20;;;5.80;;
18740;SDS011;9499;52.472;13.448;2023-03-01T02:24:49;4.63;;;4.37;;
18740;SDS011;9499;52.472;13.448;2023-03-01T02:27:26;6.07;;;5.67;;
18740;SDS011;9499;52.472;13.448;2023-03-01T02:30:00;7.20;;;4.67;;
18740;SDS011;9499;52.472;13.448;2023-03-01T02:32:27;9.40;;;7.33;;
18740;SDS011;9499;52.472;13.448;2023-03-01T02:34:53;6.20;;;5.43;;
18740;SDS011;9499;52.472;13.448;2023-03-01T02:37:21;5.13;;;4.83;;
18740;SDS011;9499;52.472;13.448;2023-03-01T02:39:52;7.63;;;6.90;;
18740;SDS011;9499;52.472;13.448;2023-03-01T02:42:23;6.13;;;5.67;;
18740;SDS011;9499;52.472;13.448;2023-03-01T02:44:54;5.73;;;5.30;;
18740;SDS011;9499;52.472;13.448;2023-03-01T02:47:22;5.40;;;5.10;;
18740;SDS011;9499;52.472;13.448;2023-03-01T02:49:48;5.10;;;4.90;;
18740;SDS011;9499;52.472;13.448;2023-03-01T02:52:30;5.77;;;5.40;;
18740;SDS011;9499;52.472;13.448;2023-03-01T02:55:04;6.43;;;5.97;;
18740;SDS011;9499;52.472;13.448;2023-03-01T02:57:35;4.93;;;4.63;;
18740;SDS011;9499;52.472;13.448;2023-03-01T03:00:07;5.93;;;5.53;;
18740;SDS011;9499;52.472;13.448;2023-03-01T03:02:39;7.47;;;6.87;;
18740;SDS011;9499;52.472;13.448;2023-03-01T03:05:07;10.10;;;4.80;;
18740;SDS011;9499;52.472;13.448;2023-03-01T03:07:36;7.17;;;6.20;;
18740;SDS011;9499;52.472;13.448;2023-03-01T03:10:05;5.83;;;5.33;;
18740;SDS011;9499;52.472;13.448;2023-03-01T03:12:36;6.70;;;6.20;;
18740;SDS011;9499;52.472;13.448;2023-03-01T03:15:03;6.40;;;4.70;;
18740;SDS011;9499;52.472;13.448;2023-03-01T03:17:33;4.83;;;4.63;;
18740;SDS011;9499;52.472;13.448;2023-03-01T03:20:03;6.43;;;5.93;;
18740;SDS011;9499;52.472;13.448;2023-03-01T03:22:30;5.80;;;5.30;;
18740;SDS011;9499;52.472;13.448;2023-03-01T03:24:59;5.47;;;5.03;;
18740;SDS011;9499;52.472;13.448;2023-03-01T03:27:25;5.97;;;5.67;;
18740;SDS011;9499;52.472;13.448;2023-03-01T03:29:53;6.70;;;4.70;;
18740;SDS011;9499;52.472;13.448;2023-03-01T03:32:19;4.67;;;4.20;;
18740;SDS011;9499;52.472;13.448;2023-03-01T03:34:46;5.43;;;5.03;;
18740;SDS011;9499;52.472;13.448;2023-03-01T03:37:15;6.53;;;5.13;;
18740;SDS011;9499;52.472;13.448;2023-03-01T03:39:56;6.60;;;6.20;;
18740;SDS011;9499;52.472;13.448;2023-03-01T03:42:23;5.43;;;5.13;;
18740;SDS011;9499;52.472;13.448;2023-03-01T03:44:49;5.07;;;4.77;;
18740;SDS011;9499;52.472;13.448;2023-03-01T03:47:16;9.37;;;6.67;;
18740;SDS011;9499;52.472;13.448;2023-03-01T03:49:43;7.63;;;6.93;;
18740;SDS011;9499;52.472;13.448;2023-03-01T03:52:09;6.10;;;5.53;;
18740;SDS011;9499;52.472;13.448;2023-03-01T03:54:39;6.27;;;5.67;;
18740;SDS011;9499;52.472;13.448;2023-03-01T03:57:06;5.37;;;4.87;;
18740;SDS011;9499;52.472;13.448;2023-03-01T03:59:33;5.40;;;5.10;;
18740;SDS011;9499;52.472;13.448;2023-03-01T04:01:59;5.30;;;5.00;;
18740;SDS011;9499;52.472;13.448;2023-03-01T04:04:26;12.00;;;4.97;;
18740;SDS011;9499;52.472;13.448;2023-03-01T04:06:52;4.40;;;4.20;;
18740;SDS011;9499;52.472;13.448;2023-03-01T04:09:19;12.53;;;7.57;;
18740;SDS011;9499;52.472;13.448;2023-03-01T04:11:47;5.60;;;5.17;;
18740;SDS011;9499;52.472;13.448;2023-03-01T04:14:13;4.00;;;3.80;;
18740;SDS011;9499;52.472;13.448;2023-03-01T04:16:40;9.10;;;6.60;;
18740;SDS011;9499;52.472;13.448;2023-03-01T04:19:07;4.57;;;4.27;;
18740;SDS011;9499;52.472;13.448;2023-03-01T04:21:34;5.77;;;5.47;;
18740;SDS011;9499;52.472;13.448;2023-03-01T04:24:05;5.53;;;5.00;;
18740;SDS011;9499;52.472;13.448;2023-03-01T04:26:33;6.37;;;5.97;;
18740;SDS011;9499;52.472;13.448;2023-03-01T04:29:01;6.47;;;5.87;;
18740;SDS011;9499;52.472;13.448;2023-03-01T04:31:28;5.30;;;5.00;;
18740;SDS011;9499;52.472;13.448;2023-03-01T04:33:57;6.00;;;5.60;;
18740;SDS011;9499;52.472;13.448;2023-03-01T04:36:25;6.83;;;6.17;;
18740;SDS011;9499;52.472;13.448;2023-03-01T04:38:53;6.67;;;6.27;;
18740;SDS011;9499;52.472;13.448;2023-03-01T04:41:22;8.63;;;7.47;;
18740;SDS011;9499;52.472;13.448;2023-03-01T04:43:50;9.50;;;5.97;;
18740;SDS011;9499;52.472;13.448;2023-03-01T04:46:19;5.20;;;4.90;;
18740;SDS011;9499;52.472;13.448;2023-03-01T04:48:46;4.40;;;4.20;;
18740;SDS011;9499;52.472;13.448;2023-03-01T04:51:13;7.70;;;7.00;;
18740;SDS011;9499;52.472;13.448;2023-03-01T04:53:41;4.57;;;4.27;;
18740;SDS011;9499;52.472;13.448;2023-03-01T04:56:08;9.10;;;8.27;;
18740;SDS011;9499;52.472;13.448;2023-03-01T04:58:43;6.20;;;5.67;;
18740;SDS011;9499;52.472;13.448;2023-03-01T05:01:12;8.60;;;5.47;;
18740;SDS011;9499;52.472;13.448;2023-03-01T05:03:42;5.97;;;5.67;;
18740;SDS011;9499;52.472;13.448;2023-03-01T05:06:15;6.80;;;6.03;;
18740;SDS011;9499;52.472;13.448;2023-03-01T05:08:43;5.77;;;5.37;;
18740;SDS011;9499;52.472;13.448;2023-03-01T05:11:10;5.83;;;4.17;;
18740;SDS011;9499;52.472;13.448;2023-03-01T05:13:37;4.50;;;4.30;;
18740;SDS011;9499;52.472;13.448;2023-03-01T05:16:05;6.67;;;6.27;;
18740;SDS011;9499;52.472;13.448;2023-03-01T05:18:36;5.70;;;5.20;;
18740;SDS011;9499;52.472;13.448;2023-03-01T05:21:06;6.10;;;5.80;;
18740;SDS011;9499;52.472;13.448;2023-03-01T05:23:34;4.97;;;4.67;;
18740;SDS011;9499;52.472;13.448;2023-03-01T05:26:02;4.90;;;4.40;;
18740;SDS011;9499;52.472;13.448;2023-03-01T05:28:32;6.90;;;5.53;;
18740;SDS011;9499;52.472;13.448;2023-03-01T05:31:02;7.80;;;5.83;;
18740;SDS011;9499;52.472;13.448;2023-03-01T05:33:37;5.63;;;4.03;;
18740;SDS011;9499;52.472;13.448;2023-03-01T05:36:06;5.03;;;4.47;;
18740;SDS011;9499;52.472;13.448;2023-03-01T05:38:36;4.67;;;4.37;;
18740;SDS011;9499;52.472;13.448;2023-03-01T05:41:03;4.30;;;4.10;;
18740;SDS011;9499;52.472;13.448;2023-03-01T05:43:33;4.60;;;4.30;;
18740;SDS011;9499;52.472;13.448;2023-03-01T05:46:04;5.40;;;5.07;;
18740;SDS011;9499;52.472;13.448;2023-03-01T05:48:30;7.67;;;6.20;;
18740;SDS011;9499;52.472;13.448;2023-03-01T05:50:59;4.80;;;4.50;;
18740;SDS011;9499;52.472;13.448;2023-03-01T05:53:30;18.87;;;6.10;;
18740;SDS011;9499;52.472;13.448;2023-03-01T05:55:57;7.70;;;6.90;;
18740;SDS011;9499;52.472;13.448;2023-03-01T05:58:23;4.90;;;4.60;;
18740;SDS011;9499;52.472;13.448;2023-03-01T06:00:50;4.77;;;4.47;;
18740;SDS011;9499;52.472;13.448;2023-03-01T06:03:19;5.87;;;5.47;;
18740;SDS011;9499;52.472;13.448;2023-03-01T06:05:45;6.10;;;4.70;;
18740;SDS011;9499;52.472;13.448;2023-03-01T06:08:12;6.50;;;6.00;;
18740;SDS011;9499;52.472;13.448;2023-03-01T06:10:40;6.00;;;5.50;;
18740;SDS011;9499;52.472;13.448;2023-03-01T06:13:07;5.10;;;4.70;;
18740;SDS011;9499;52.472;13.448;2023-03-01T06:15:34;6.73;;;5.47;;
18740;SDS011;9499;52.472;13.448;2023-03-01T06:18:00;3.83;;;3.63;;
18740;SDS011;9499;52.472;13.448;2023-03-01T06:20:28;4.50;;;4.20;;
18740;SDS011;9499;52.472;13.448;2023-03-01T06:22:56;5.27;;;4.97;;
18740;SDS011;9499;52.472;13.448;2023-03-01T06:25:25;5.17;;;4.83;;
18740;SDS011;9499;52.472;13.448;2023-03-01T06:27:54;4.27;;;4.07;;
18740;SDS011;9499;52.472;13.448;2023-03-01T06:30:22;7.40;;;6.60;;
18740;SDS011;9499;52.472;13.448;2023-03-01T06:32:49;5.37;;;4.97;;
18740;SDS011;9499;52.472;13.448;2023-03-01T06:35:16;5.80;;;5.50;;
18740;SDS011;9499;52.472;13.448;2023-03-01T06:37:44;5.60;;;5.13;;
18740;SDS011;9499;52.472;13.448;2023-03-01T06:40:11;9.60;;;4.77;;
18740;SDS011;9499;52.472;13.448;2023-03-01T06:42:39;5.53;;;5.23;;
18740;SDS011;9499;52.472;13.448;2023-03-01T06:45:10;6.00;;;5.50;;
18740;SDS011;9499;52.472;13.448;2023-03-01T06:47:38;5.63;;;5.33;;
18740;SDS011;9499;52.472;13.448;2023-03-01T06:50:04;7.70;;;7.07;;
18740;SDS011;9499;52.472;13.448;2023-03-01T06:52:31;4.40;;;4.10;;
18740;SDS011;9499;52.472;13.448;2023-03-01T06:54:58;4.97;;;4.60;;
18740;SDS011;9499;52.472;13.448;2023-03-01T06:57:25;10.77;;;5.00;;
18740;SDS011;9499;52.472;13.448;2023-03-01T06:59:52;5.93;;;5.53;;
18740;SDS011;9499;52.472;13.448;2023-03-01T07:02:20;4.80;;;4.50;;
18740;SDS011;9499;52.472;13.448;2023-03-01T07:04:48;6.70;;;5.53;;
18740;SDS011;9499;52.472;13.448;2023-03-01T07:07:15;4.77;;;4.53;;
18740;SDS011;9499;52.472;13.448;2023-03-01T07:09:42;4.70;;;4.43;;
18740;SDS011;9499;52.472;13.448;2023-03-01T07:12:09;8.53;;;7.93;;
18740;SDS011;9499;52.472;13.448;2023-03-01T07:14:39;7.90;;;4.83;;
18740;SDS011;9499;52.472;13.448;2023-03-01T07:17:05;6.00;;;5.40;;
18740;SDS011;9499;52.472;13.448;2023-03-01T07:19:36;5.73;;;5.43;;
18740;SDS011;9499;52.472;13.448;2023-03-01T07:22:03;5.27;;;4.87;;
18740;SDS011;9499;52.472;13.448;2023-03-01T07:24:32;7.90;;;6.67;;
18740;SDS011;9499;52.472;13.448;2023-03-01T07:26:59;5.17;;;4.87;;
18740;SDS011;9499;52.472;13.448;2023-03-01T07:29:25;5.23;;;4.83;;
18740;SDS011;9499;52.472;13.448;2023-03-01T07:31:54;6.83;;;4.53;;
18740;SDS011;9499;52.472;13.448;2023-03-01T07:34:21;5.60;;;5.30;;
18740;SDS011;9499;52.472;13.448;2023-03-01T07:36:48;4.50;;;4.20;;
18740;SDS011;9499;52.472;13.448;2023-03-01T07:39:17;14.57;;;6.60;;
18740;SDS011;9499;52.472;13.448;2023-03-01T07:41:44;5.93;;;5.50;;
18740;SDS011;9499;52.472;13.448;2023-03-01T07:44:10;6.90;;;5.90;;
18740;SDS011;9499;52.472;13.448;2023-03-01T07:46:37;5.80;;;5.40;;
18740;SDS011;9499;52.472;13.448;2023-03-01T07:49:11;9.00;;;6.17;;
18740;SDS011;9499;52.472;13.448;2023-03-01T07:51:37;10.57;;;6.27;;
18740;SDS011;9499;52.472;13.448;2023-03-01T07:54:08;6.97;;;6.60;;
18740;SDS011;9499;52.472;13.448;2023-03-01T07:56:35;4.80;;;4.50;;
18740;SDS011;9499;52.472;13.448;2023-03-01T07:59:10;5.47;;;5.07;;
18740;SDS011;9499;52.472;13.448;2023-03-01T08:01:43;6.73;;;5.43;;
18740;SDS011;9499;52.472;13.448;2023-03-01T08:04:10;7.70;;;6.70;;
18740;SDS011;9499;52.472;13.448;2023-03-01T08:06:36;4.80;;;4.53;;
18740;SDS011;9499;52.472;13.448;2023-03-01T08:09:03;5.17;;;4.40;;
18740;SDS011;9499;52.472;13.448;2023-03-01T08:11:31;5.60;;;4.70;;
18740;SDS011;9499;52.472;13.448;2023-03-01T08:13:57;5.67;;;4.80;;
18740;SDS011;9499;52.472;13.448;2023-03-01T08:16:24;4.13;;;3.83;;
18740;SDS011;9499;52.472;13.448;2023-03-01T08:18:51;6.03;;;5.60;;
18740;SDS011;9499;52.472;13.448;2023-03-01T08:21:18;5.57;;;5.17;;
18740;SDS011;9499;52.472;13.448;2023-03-01T08:23:47;5.67;;;5.17;;
18740;SDS011;9499;52.472;13.448;2023-03-01T08:26:14;12.97;;;5.73;;
18740;SDS011;9499;52.472;13.448;2023-03-01T08:28:45;6.60;;;5.77;;
18740;SDS011;9499;52.472;13.448;2023-03-01T08:31:13;8.40;;;5.17;;
18740;SDS011;9499;52.472;13.448;2023-03-01T08:33:44;24.37;;;6.03;;
18740;SDS011;9499;52.472;13.448;2023-03-01T08:36:15;8.07;;;6.33;;
18740;SDS011;9499;52.472;13.448;2023-03-01T08:38:51;6.43;;;5.23;;
18740;SDS011;9499;52.472;13.448;2023-03-01T08:41:19;4.40;;;4.00;;
18740;SDS011;9499;52.472;13.448;2023-03-01T08:43:47;12.40;;;7.10;;
18740;SDS011;9499;52.472;13.448;2023-03-01T08:46:14;3.57;;;3.37;;
18740;SDS011;9499;52.472;13.448;2023-03-01T08:48:40;5.63;;;3.97;;
18740;SDS011;9499;52.472;13.448;2023-03-01T08:51:13;6.53;;;5.93;;
18740;SDS011;9499;52.472;13.448;2023-03-01T08:53:43;5.20;;;4.80;;
18740;SDS011;9499;52.472;13.448;2023-03-01T08:56:10;4.80;;;3.80;;
18740;SDS011;9499;52.472;13.448;2023-03-01T08:58:37;4.63;;;3.57;;
18740;SDS011;9499;52.472;13.448;2023-03-01T09:01:08;4.23;;;3.97;;
18740;SDS011;9499;52.472;13.448;2023-03-01T09:03:42;6.63;;;6.13;;
18740;SDS011;9499;52.472;13.448;2023-03-01T09:06:09;7.10;;;6.60;;
18740;SDS011;9499;52.472;13.448;2023-03-01T09:08:37;3.37;;;3.17;;
18740;SDS011;9499;52.472;13.448;2023-03-01T09:11:06;6.03;;;4.43;;
18740;SDS011;9499;52.472;13.448;2023-03-01T09:13:34;4.07;;;3.73;;
18740;SDS011;9499;52.472;13.448;2023-03-01T09:16:02;3.53;;;3.33;;
18740;SDS011;9499;52.472;13.448;2023-03-01T09:18:32;4.40;;;4.00;;
18740;SDS011;9499;52.472;13.448;2023-03-01T09:21:03;4.13;;;3.83;;
18740;SDS011;9499;52.472;13.448;2023-03-01T09:23:32;3.47;;;3.17;;
18740;SDS011;9499;52.472;13.448;2023-03-01T09:25:59;3.50;;;3.30;;
18740;SDS011;9499;52.472;13.448;2023-03-01T09:28:25;2.77;;;2.67;;
18740;SDS011;9499;52.472;13.448;2023-03-01T09:30:52;8.60;;;4.67;;
18740;SDS011;9499;52.472;13.448;2023-03-01T09:33:18;3.70;;;3.43;;
18740;SDS011;9499;52.472;13.448;2023-03-01T09:35:47;3.73;;;3.43;;
18740;SDS011;9499;52.472;13.448;2023-03-01T09:38:13;7.23;;;4.00;;
18740;SDS011;9499;52.472;13.448;2023-03-01T09:40:42;3.43;;;3.23;;
18740;SDS011;9499;52.472;13.448;2023-03-01T09:43:15;3.40;;;3.03;;
18740;SDS011;9499;52.472;13.448;2023-03-01T09:45:46;2.97;;;2.77;;
18740;SDS011;9499;52.472;13.448;2023-03-01T09:48:16;3.67;;;3.37;;
18740;SDS011;9499;52.472;13.448;2023-03-01T09:50:48;3.70;;;3.40;;
18740;SDS011;9499;52.472;13.448;2023-03-01T09:53:15;3.67;;;3.37;;
18740;SDS011;9499;52.472;13.448;2023-03-01T09:55:44;3.63;;;2.97;;
18740;SDS011;9499;52.472;13.448;2023-03-01T09:58:22;3.50;;;2.93;;
18740;SDS011;9499;52.472;13.448;2023-03-01T10:00:57;3.30;;;3.10;;
18740;SDS011;9499;52.472;13.448;2023-03-01T10:03:36;3.00;;;2.80;;
18740;SDS011;9499;52.472;13.448;2023-03-01T10:06:12;3.20;;;3.00;;
18740;SDS011;9499;52.472;13.448;2023-03-01T10:08:46;3.03;;;2.83;;
18740;SDS011;9499;52.472;13.448;2023-03-01T10:11:24;3.17;;;2.97;;
18740;SDS011;9499;52.472;13.448;2023-03-01T10:13:55;4.27;;;3.83;;
18740;SDS011;9499;52.472;13.448;2023-03-01T10:16:27;2.97;;;2.73;;
18740;SDS011;9499;52.472;13.448;2023-03-01T10:19:00;3.33;;;3.13;;
18740;SDS011;9499;52.472;13.448;2023-03-01T10:21:41;2.70;;;2.50;;
18740;SDS011;9499;52.472;13.448;2023-03-01T10:24:12;3.20;;;2.90;;
18740;SDS011;9499;52.472;13.448;2023-03-01T10:26:48;3.33;;;3.10;;
18740;SDS011;9499;52.472;13.448;2023-03-01T10:29:20;2.20;;;2.10;;
18740;SDS011;9499;52.472;13.448;2023-03-01T10:31:52;4.80;;;3.17;;
18740;SDS011;9499;52.472;13.448;2023-03-01T10:34:20;20.53;;;3.07;;
18740;SDS011;9499;52.472;13.448;2023-03-01T10:37:01;3.00;;;2.80;;
18740;SDS011;9499;52.472;13.448;2023-03-01T10:39:35;3.47;;;3.17;;
18740;SDS011;9499;52.472;13.448;2023-03-01T10:42:03;3.70;;;2.27;;
18740;SDS011;9499;52.472;13.448;2023-03-01T10:44:35;2.87;;;2.50;;
18740;SDS011;9499;52.472;13.448;2023-03-01T10:47:04;3.20;;;2.47;;
18740;SDS011;9499;52.472;13.448;2023-03-01T10:49:31;2.73;;;2.53;;
18740;SDS011;9499;52.472;13.448;2023-03-01T10:51:59;2.87;;;2.57;;
18740;SDS011;9499;52.472;13.448;2023-03-01T10:54:43;2.53;;;2.33;;
18740;SDS011;9499;52.472;13.448;2023-03-01T10:57:24;2.80;;;2.60;;
18740;SDS011;9499;52.472;13.448;2023-03-01T11:00:00;2.63;;;2.43;;
18740;SDS011;9499;52.472;13.448;2023-03-01T11:02:40;2.57;;;2.37;;
18740;SDS011;9499;52.472;13.448;2023-03-01T11:05:13;4.87;;;3.20;;
18740;SDS011;9499;52.472;13.448;2023-03-01T11:07:49;3.80;;;2.23;;
18740;SDS011;9499;52.472;13.448;2023-03-01T11:10:17;2.83;;;2.63;;
18740;SDS011;9499;52.472;13.448;2023-03-01T11:12:44;3.17;;;2.97;;
18740;SDS011;9499;52.472;13.448;2023-03-01T11:15:19;2.60;;;2.40;;
18740;SDS011;9499;52.472;13.448;2023-03-01T11:17:49;3.57;;;3.17;;
18740;SDS011;9499;52.472;13.448;2023-03-01T11:20:17;6.67;;;2.93;;
18740;SDS011;9499;52.472;13.448;2023-03-01T11:22:53;3.73;;;3.43;;
18740;SDS011;9499;52.472;13.448;2023-03-01T11:25:23;2.47;;;2.27;;
18740;SDS011;9499;52.472;13.448;2023-03-01T11:27:51;2.20;;;2.00;;
18740;SDS011;9499;52.472;13.448;2023-03-01T11:30:20;2.63;;;2.30;;
18740;SDS011;9499;52.472;13.448;2023-03-01T11:32:50;2.00;;;1.87;;
18740;SDS011;9499;52.472;13.448;2023-03-01T11:35:27;1.93;;;1.83;;
18740;SDS011;9499;52.472;13.448;2023-03-01T11:38:02;3.07;;;2.50;;
18740;SDS011;9499;52.472;13.448;2023-03-01T11:40:33;2.77;;;2.57;;
18740;SDS011;9499;52.472;13.448;2023-03-01T11:43:09;2.40;;;2.20;;
18740;SDS011;9499;52.472;13.448;2023-03-01T11:45:43;2.40;;;2.20;;
18740;SDS011;9499;52.472;13.448;2023-03-01T11:48:29;2.70;;;2.30;;
18740;SDS011;9499;52.472;13.448;2023-03-01T11:51:07;2.40;;;2.20;;
18740;SDS011;9499;52.472;13.448;2023-03-01T11:53:48;2.13;;;1.83;;
18740;SDS011;9499;52.472;13.448;2023-03-01T11:56:25;3.57;;;2.10;;
18740;SDS011;9499;52.472;13.448;2023-03-01T11:59:02;1.80;;;1.70;;
18740;SDS011;9499;52.472;13.448;2023-03-01T12:01:45;2.10;;;1.90;;
18740;SDS011;9499;52.472;13.448;2023-03-01T12:04:31;3.00;;;1.80;;
18740;SDS011;9499;52.472;13.448;2023-03-01T12:07:16;2.80;;;2.20;;
18740;SDS011;9499;52.472;13.448;2023-03-01T12:09:52;1.80;;;1.70;;
18740;SDS011;9499;52.472;13.448;2023-03-01T12:12:36;2.00;;;1.80;;
18740;SDS011;9499;52.472;13.448;2023-03-01T12:15:28;2.10;;;1.90;;
18740;SDS011;9499;52.472;13.448;2023-03-01T12:18:12;1.90;;;1.80;;
18740;SDS011;9499;52.472;13.448;2023-03-01T12:20:51;2.20;;;2.00;;
18740;SDS011;9499;52.472;13.448;2023-03-01T12:26:42;1.67;;;1.57;;
18740;SDS011;9499;52.472;13.448;2023-03-01T12:29:20;4.50;;;1.67;;
18740;SDS011;9499;52.472;13.448;2023-03-01T12:32:02;2.13;;;1.93;;
18740;SDS011;9499;52.472;13.448;2023-03-01T12:34:49;2.27;;;1.63;;
18740;SDS011;9499;52.472;13.448;2023-03-01T12:37:47;2.00;;;1.80;;
18740;SDS011;9499;52.472;13.448;2023-03-01T12:40:24;2.07;;;1.80;;
18740;SDS011;9499;52.472;13.448;2023-03-01T12:43:01;2.60;;;2.40;;
18740;SDS011;9499;52.472;13.448;2023-03-01T12:45:41;4.23;;;2.13;;
18740;SDS011;9499;52.472;13.448;2023-03-01T12:48:20;1.80;;;1.70;;
18740;SDS011;9499;52.472;13.448;2023-03-01T12:50:55;2.13;;;1.90;;
18740;SDS011;9499;52.472;13.448;2023-03-01T12:53:27;6.33;;;1.87;;
18740;SDS011;9499;52.472;13.448;2023-03-01T12:55:58;1.60;;;1.50;;
18740;SDS011;9499;52.472;13.448;2023-03-01T12:58:29;1.90;;;1.70;;
18740;SDS011;9499;52.472;13.448;2023-03-01T13:01:01;4.80;;;2.50;;
18740;SDS011;9499;52.472;13.448;2023-03-01T13:03:42;2.40;;;1.57;;
18740;SDS011;9499;52.472;13.448;2023-03-01T13:06:24;1.63;;;1.53;;
18740;SDS011;9499;52.472;13.448;2023-03-01T13:09:03;1.30;;;1.20;;
18740;SDS011;9499;52.472;13.448;2023-03-01T13:11:40;1.90;;;1.47;;
18740;SDS011;9499;52.472;13.448;2023-03-01T13:17:31;1.47;;;1.33;;
18740;SDS011;9499;52.472;13.448;2023-03-01T13:19:59;1.70;;;1.60;;
18740;SDS011;9499;52.472;13.448;2023-03-01T13:22:27;1.70;;;1.40;;
18740;SDS011;9499;52.472;13.448;2023-03-01T13:25:01;1.77;;;1.47;;
18740;SDS011;9499;52.472;13.448;2023-03-01T13:27:29;2.23;;;1.80;;
18740;SDS011;9499;52.472;13.448;2023-03-01T13:29:56;2.03;;;1.30;;
18740;SDS011;9499;52.472;13.448;2023-03-01T13:32:28;1.97;;;1.50;;
18740;SDS011;9499;52.472;13.448;2023-03-01T13:34:58;1.50;;;1.30;;
18740;SDS011;9499;52.472;13.448;2023-03-01T13:37:29;2.13;;;1.80;;
18740;SDS011;9499;52.472;13.448;2023-03-01T13:40:04;1.80;;;1.60;;
18740;SDS011;9499;52.472;13.448;2023-03-01T13:42:47;1.67;;;1.57;;
18740;SDS011;9499;52.472;13.448;2023-03-01T13:45:19;1.80;;;1.70;;
18740;SDS011;9499;52.472;13.448;2023-03-01T13:47:50;2.30;;;2.10;;
18740;SDS011;9499;52.472;13.448;2023-03-01T13:50:24;4.43;;;3.33;;
18740;SDS011;9499;52.472;13.448;2023-03-01T13:52:52;2.17;;;1.83;;
18740;SDS011;9499;52.472;13.448;2023-03-01T13:55:24;1.70;;;1.40;;
18740;SDS011;9499;52.472;13.448;2023-03-01T13:57:58;2.60;;;1.97;;
18740;SDS011;9499;52.472;13.448;2023-03-01T14:00:28;1.50;;;1.40;;
18740;SDS011;9499;52.472;13.448;2023-03-01T14:03:02;3.10;;;1.50;;
18740;SDS011;9499;52.472;13.448;2023-03-01T14:05:32;2.03;;;1.83;;
18740;SDS011;9499;52.472;13.448;2023-03-01T14:08:00;1.73;;;1.60;;
18740;SDS011;9499;52.472;13.448;2023-03-01T14:10:29;1.50;;;1.40;;
18740;SDS011;9499;52.472;13.448;2023-03-01T14:13:05;2.37;;;1.60;;
18740;SDS011;9499;52.472;13.448;2023-03-01T14:15:45;1.67;;;1.57;;
18740;SDS011;9499;52.472;13.448;2023-03-01T14:18:32;1.50;;;1.20;;
18740;SDS011;9499;52.472;13.448;2023-03-01T14:21:07;2.90;;;2.07;;
18740;SDS011;9499;52.472;13.448;2023-03-01T14:23:34;2.03;;;1.40;;
18740;SDS011;9499;52.472;13.448;2023-03-01T14:26:01;3.30;;;1.73;;
18740;SDS011;9499;52.472;13.448;2023-03-01T14:28:29;1.50;;;1.30;;
18740;SDS011;9499;52.472;13.448;2023-03-01T14:30:58;3.00;;;1.40;;
18740;SDS011;9499;52.472;13.448;2023-03-01T14:33:26;4.63;;;1.50;;
18740;SDS011;9499;52.472;13.448;2023-03-01T14:35:57;2.00;;;1.83;;
18740;SDS011;9499;52.472;13.448;2023-03-01T14:38:30;2.00;;;1.50;;
18740;SDS011;9499;52.472;13.448;2023-03-01T14:41:00;1.50;;;1.37;;
18740;SDS011;9499;52.472;13.448;2023-03-01T14:43:29;1.70;;;1.60;;
18740;SDS011;9499;52.472;13.448;2023-03-01T14:45:57;2.03;;;1.60;;
18740;SDS011;9499;52.472;13.448;2023-03-01T14:48:24;1.83;;;1.40;;
18740;SDS011;9499;52.472;13.448;2023-03-01T14:50:52;3.00;;;1.73;;
18740;SDS011;9499;52.472;13.448;2023-03-01T14:53:21;2.43;;;1.70;;
18740;SDS011;9499;52.472;13.448;2023-03-01T14:55:51;6.60;;;1.70;;
18740;SDS011;9499;52.472;13.448;2023-03-01T14:58:20;2.67;;;2.40;;
18740;SDS011;9499;52.472;13.448;2023-03-01T15:00:49;1.50;;;1.40;;
18740;SDS011;9499;52.472;13.448;2023-03-01T15:03:20;2.27;;;1.50;;
18740;SDS011;9499;52.472;13.448;2023-03-01T15:05:51;2.80;;;1.57;;
18740;SDS011;9499;52.472;13.448;2023-03-01T15:08:19;2.10;;;1.90;;
18740;SDS011;9499;52.472;13.448;2023-03-01T15:10:56;1.80;;;1.70;;
18740;SDS011;9499;52.472;13.448;2023-03-01T15:13:25;2.10;;;1.90;;